Time;durP1;ratioP1;P1;durP2;ratioP2;P2;SDS_P1;SDS_P2;PMS_P1;PMS_P2;Temp;Humidity;BMP_temperature;BMP_pressure;BME280_temperature;BME280_humidity;BME280_pressure;Samples;Min_cycle;Max_cycle;Signal;HPM_P1;HPM_P2
2022/01/03 00:01:30;;;;;;;10.85;2.30;;;9.30;99.90;;;;;;4919135;29;20051;-95
2022/01/03 00:03:56;;;;;;;8.13;2.22;;;9.40;99.90;;;;;;4926356;29;20024;-96
2022/01/03 01:11:39;;;;;;;14.35;3.42;;;9.90;99.90;;;;;;4946223;29;20051;-96
2022/01/03 01:14:14;;;;;;;15.60;4.00;;;9.90;99.90;;;;;;4912420;29;20039;-93
2022/01/03 01:16:40;;;;;;;18.17;4.05;;;9.90;99.90;;;;;;4893462;29;20056;-93
2022/01/03 01:19:06;;;;;;;18.92;4.28;;;9.90;99.90;;;;;;4896695;29;20065;-95
2022/01/03 01:21:41;;;;;;;15.38;3.38;;;9.90;99.90;;;;;;4899712;29;20040;-96
2022/01/03 01:24:11;;;;;;;16.05;3.67;;;10.00;99.90;;;;;;4899863;29;20060;-96
2022/01/03 01:29:37;;;;;;;16.13;3.45;;;10.00;99.90;;;;;;4923281;23;20080;-96
2022/01/03 01:32:14;;;;;;;18.50;3.92;;;10.00;99.90;;;;;;4885037;29;20076;-96
2022/01/03 01:34:43;;;;;;;14.77;3.38;;;9.90;99.90;;;;;;4898050;29;20028;-96
2022/01/03 01:37:10;;;;;;;17.33;3.47;;;10.00;99.90;;;;;;4896188;29;20055;-96
2022/01/03 01:39:46;;;;;;;14.30;3.40;;;10.00;99.90;;;;;;4893381;29;20096;-96
2022/01/03 01:42:19;;;;;;;17.92;4.45;;;10.00;99.90;;;;;;4895629;29;20048;-96
2022/01/03 01:44:53;;;;;;;16.35;3.38;;;10.00;99.90;;;;;;4899204;29;20032;-96
2022/01/03 01:47:22;;;;;;;17.30;3.38;;;10.10;99.90;;;;;;4896297;29;20044;-95
2022/01/03 01:49:48;;;;;;;15.02;3.40;;;10.10;99.90;;;;;;4895529;29;20052;-93
2022/01/03 01:52:20;;;;;;;15.63;3.70;;;10.00;99.90;;;;;;4910758;29;20108;-96
2022/01/03 01:55:07;;;;;;;16.73;3.33;;;10.00;99.90;;;;;;4897955;29;20036;-96
2022/01/03 01:58:00;;;;;;;17.80;3.65;;;10.10;99.90;;;;;;4888452;29;20040;-95
2022/01/03 02:00:33;;;;;;;16.75;3.60;;;10.00;99.90;;;;;;4891931;29;20048;-96
2022/01/03 02:03:29;;;;;;;15.13;3.72;;;10.00;99.90;;;;;;4911565;29;20419;-96
2022/01/03 02:06:27;;;;;;;15.70;3.80;;;10.00;99.90;;;;;;4879022;29;20048;-96
2022/01/03 02:09:16;;;;;;;20.95;3.80;;;10.00;99.90;;;;;;4893138;29;20042;-96
2022/01/03 02:12:02;;;;;;;15.20;3.88;;;10.00;99.90;;;;;;4893848;29;20020;-93
2022/01/03 02:14:35;;;;;;;16.80;3.35;;;9.90;99.90;;;;;;4880454;29;20052;-95
2022/01/03 02:17:01;;;;;;;18.15;3.15;;;10.00;99.90;;;;;;4890324;29;20036;-94
2022/01/03 02:19:27;;;;;;;20.65;4.18;;;9.90;99.90;;;;;;4889941;29;20501;-95
2022/01/03 02:21:52;;;;;;;16.77;3.03;;;9.90;99.90;;;;;;4905034;29;20175;-96
2022/01/03 02:24:18;;;;;;;15.63;3.42;;;9.90;99.90;;;;;;4890726;29;20052;-95
2022/01/03 02:26:58;;;;;;;18.55;4.15;;;9.90;99.90;;;;;;4894018;29;20434;-96
2022/01/03 02:29:27;;;;;;;20.75;4.43;;;9.90;99.90;;;;;;4904893;29;20071;-96
2022/01/03 02:31:53;;;;;;;17.08;3.75;;;9.80;99.90;;;;;;4917216;29;20055;-95
2022/01/03 02:34:19;;;;;;;17.05;3.63;;;9.90;99.90;;;;;;4914268;29;20040;-94
2022/01/03 02:36:45;;;;;;;17.38;3.97;;;9.80;99.90;;;;;;4907717;29;20053;-93
2022/01/03 02:39:13;;;;;;;17.88;3.92;;;9.80;99.90;;;;;;4929376;29;20015;-96
2022/01/03 02:41:50;;;;;;;18.77;3.75;;;9.80;99.90;;;;;;4903027;29;20036;-96
2022/01/03 02:44:19;;;;;;;17.30;3.75;;;9.80;99.90;;;;;;4898799;29;20190;-96
2022/01/03 02:46:45;;;;;;;18.77;3.47;;;9.80;99.90;;;;;;4892717;29;20052;-95
2022/01/03 02:49:10;;;;;;;15.68;3.67;;;9.70;99.90;;;;;;4908879;29;20162;-96
2022/01/03 02:51:36;;;;;;;16.20;3.95;;;9.70;99.90;;;;;;4915144;29;20035;-95
2022/01/03 02:54:02;;;;;;;16.20;3.97;;;9.70;99.90;;;;;;4897701;29;20055;-96
2022/01/03 02:56:34;;;;;;;15.52;3.55;;;9.70;99.90;;;;;;4914979;28;20028;-96
2022/01/03 02:59:13;;;;;;;18.02;4.72;;;9.70;99.90;;;;;;4926559;29;20052;-94
2022/01/03 03:01:44;;;;;;;14.93;3.83;;;9.70;99.90;;;;;;4904756;29;20127;-96
2022/01/03 03:04:10;;;;;;;;;;;9.70;99.90;;;;;;4919930;29;20051;-96
2022/01/03 03:06:38;;;;;;;18.48;4.18;;;9.60;99.90;;;;;;5012125;23;19930;-95
2022/01/03 03:09:06;;;;;;;18.45;3.88;;;9.70;99.90;;;;;;4900531;29;20046;-96
2022/01/03 03:11:34;;;;;;;19.00;4.32;;;9.70;99.90;;;;;;4902066;29;20055;-96
2022/01/03 03:14:13;;;;;;;15.95;3.03;;;9.70;99.90;;;;;;4914496;29;20055;-93
2022/01/03 03:16:42;;;;;;;16.05;4.15;;;9.60;99.90;;;;;;4915565;29;20050;-95
2022/01/03 03:19:09;;;;;;;17.50;3.95;;;9.60;99.90;;;;;;4913110;29;20062;-96
2022/01/03 03:21:35;;;;;;;21.95;4.35;;;9.60;99.90;;;;;;4909911;29;20040;-95
2022/01/03 03:24:05;;;;;;;18.58;4.38;;;9.50;99.90;;;;;;4915805;29;20047;-96
2022/01/03 03:26:30;;;;;;;16.13;3.40;;;9.50;99.90;;;;;;4896000;29;20519;-96
2022/01/03 03:28:57;;;;;;;20.58;4.25;;;9.50;99.90;;;;;;4900088;29;20111;-94
2022/01/03 03:31:26;;;;;;;18.75;4.72;;;9.50;99.90;;;;;;4893521;29;20036;-96
2022/01/03 03:34:01;;;;;;;18.33;4.13;;;9.50;99.90;;;;;;4898134;29;20052;-95
2022/01/03 03:36:26;;;;;;;16.50;4.13;;;9.50;99.90;;;;;;4906293;29;20048;-96
2022/01/03 03:38:52;;;;;;;16.65;4.03;;;9.50;99.90;;;;;;4889286;29;20044;-95
2022/01/03 03:41:21;;;;;;;21.48;5.38;;;9.50;99.90;;;;;;4891241;29;20040;-96
2022/01/03 03:43:59;;;;;;;22.33;5.05;;;9.60;99.90;;;;;;4895340;29;20468;-92
2022/01/03 03:46:24;;;;;;;15.27;3.75;;;9.60;99.90;;;;;;4893499;29;20044;-96
2022/01/03 03:48:50;;;;;;;18.50;4.30;;;9.60;99.90;;;;;;4905609;29;20527;-95
2022/01/03 03:51:16;;;;;;;16.70;3.75;;;9.60;99.90;;;;;;4886722;29;20532;-94
2022/01/03 03:53:41;;;;;;;20.95;4.45;;;9.60;99.90;;;;;;4895382;29;20083;-96
2022/01/03 03:56:08;;;;;;;19.65;3.97;;;9.60;99.90;;;;;;4897841;29;20387;-95
2022/01/03 03:58:39;;;;;;;22.35;4.45;;;9.60;99.90;;;;;;4903548;29;20116;-96
2022/01/03 04:01:05;;;;;;;16.55;3.95;;;9.70;99.90;;;;;;4898277;29;20040;-96
2022/01/03 04:03:33;;;;;;;17.88;4.10;;;9.70;99.90;;;;;;4908938;29;20150;-96
2022/01/03 04:06:02;;;;;;;20.63;4.47;;;9.70;99.90;;;;;;4902883;29;20417;-95
2022/01/03 04:08:27;;;;;;;18.02;4.65;;;9.60;99.90;;;;;;4888830;29;20054;-95
2022/01/03 04:10:53;;;;;;;19.02;4.25;;;9.70;99.90;;;;;;4908566;29;20044;-95
2022/01/03 04:13:31;;;;;;;19.85;4.13;;;9.80;99.90;;;;;;4888058;29;20048;-95
2022/01/03 04:15:58;;;;;;;18.52;4.40;;;9.80;99.90;;;;;;4889406;29;20421;-94
2022/01/03 04:18:23;;;;;;;20.23;4.82;;;9.70;99.90;;;;;;4889579;29;20044;-96
2022/01/03 04:23:26;;;;;;;20.80;4.63;;;9.80;99.90;;;;;;4914831;29;20060;-96
2022/01/03 04:25:52;;;;;;;22.20;4.63;;;9.80;99.90;;;;;;4872922;29;20112;-96
2022/01/03 04:28:24;;;;;;;20.27;4.15;;;9.80;99.90;;;;;;4884648;29;20048;-96
2022/01/03 04:30:52;;;;;;;22.80;4.50;;;9.90;99.90;;;;;;4890739;29;20063;-95
2022/01/03 04:33:18;;;;;;;20.50;4.55;;;9.90;99.90;;;;;;4885476;29;20052;-95
2022/01/03 04:35:44;;;;;;;20.20;4.95;;;9.90;99.90;;;;;;4892389;29;20054;-96
2022/01/03 04:38:10;;;;;;;17.95;4.50;;;9.90;99.90;;;;;;4892876;29;20075;-94
2022/01/03 04:40:42;;;;;;;20.33;4.63;;;10.00;99.90;;;;;;4892671;29;20062;-96
2022/01/03 04:43:35;;;;;;;21.90;4.97;;;9.90;99.90;;;;;;4895069;29;20044;-95
2022/01/03 04:46:02;;;;;;;21.52;4.43;;;10.00;99.90;;;;;;4888822;29;20084;-94
2022/01/03 04:48:28;;;;;;;21.95;4.55;;;9.90;99.90;;;;;;4889999;29;20059;-95
2022/01/03 04:50:53;;;;;;;20.23;4.18;;;9.90;99.90;;;;;;4892352;29;20112;-95
2022/01/03 04:53:25;;;;;;;24.80;5.70;;;9.90;99.90;;;;;;4894497;29;20048;-96
2022/01/03 04:55:53;;;;;;;;;;;9.90;99.90;;;;;;4895273;29;20405;-96
2022/01/03 04:58:38;;;;;;;19.33;5.38;;;9.90;99.90;;;;;;4893924;29;19923;-96
2022/01/03 05:01:08;;;;;;;19.58;4.47;;;10.00;99.90;;;;;;4899028;29;20040;-96
2022/01/03 05:06:05;;;;;;;21.42;4.47;;;9.90;99.90;;;;;;4951969;23;20058;-96
2022/01/03 05:08:32;;;;;;;18.08;4.72;;;10.00;99.90;;;;;;4919208;29;20051;-93
2022/01/03 05:11:02;;;;;;;26.08;5.25;;;10.00;99.90;;;;;;4917957;29;20110;-96
2022/01/03 05:13:52;;;;;;;20.20;4.72;;;9.90;99.90;;;;;;4922410;29;20227;-95
2022/01/03 05:16:18;;;;;;;19.80;5.22;;;10.00;99.90;;;;;;4917196;29;20126;-96
2022/01/03 05:18:47;;;;;;;21.27;5.10;;;9.90;99.90;;;;;;4915699;29;20075;-95
2022/01/03 05:21:13;;;;;;;23.05;5.88;;;9.90;99.90;;;;;;4916466;29;20054;-96
2022/01/03 05:23:39;;;;;;;24.90;6.93;;;9.90;99.90;;;;;;4917994;29;20043;-96
2022/01/03 05:26:05;;;;;;;21.95;5.38;;;9.90;99.90;;;;;;4916466;29;20044;-96
2022/01/03 05:28:40;;;;;;;21.90;5.22;;;10.00;99.90;;;;;;4912391;29;20103;-94
2022/01/03 05:31:09;;;;;;;24.02;5.40;;;10.00;99.90;;;;;;4918851;29;20111;-95
2022/01/03 05:33:34;;;;;;;17.00;4.68;;;9.90;99.90;;;;;;4928017;29;20052;-95
2022/01/03 05:36:00;;;;;;;24.02;5.22;;;9.90;99.90;;;;;;4916573;29;20050;-96
2022/01/03 05:38:29;;;;;;;20.15;4.03;;;10.00;99.90;;;;;;4914653;29;20044;-96
2022/01/03 05:41:01;;;;;;;22.02;4.68;;;9.90;99.90;;;;;;4915847;29;20052;-95
2022/01/03 05:43:56;;;;;;;20.42;4.85;;;9.90;99.90;;;;;;4913416;29;20103;-95
2022/01/03 05:46:23;;;;;;;23.10;4.50;;;9.90;99.90;;;;;;4917172;29;20154;-95
2022/01/03 05:48:48;;;;;;;19.15;4.65;;;9.80;99.90;;;;;;4915918;29;20044;-96
2022/01/03 05:51:16;;;;;;;24.08;5.35;;;9.70;99.90;;;;;;4929955;29;20035;-96
2022/01/03 05:53:42;;;;;;;21.33;4.63;;;9.70;99.90;;;;;;4925048;29;20043;-96
2022/01/03 05:56:09;;;;;;;23.17;6.07;;;9.80;99.90;;;;;;4924569;29;20032;-93
2022/01/03 05:58:42;;;;;;;20.58;4.97;;;9.70;99.90;;;;;;4944768;29;20024;-96
2022/01/03 06:01:08;;;;;;;22.35;4.40;;;9.70;99.90;;;;;;4924443;29;20052;-96
2022/01/03 06:03:38;;;;;;;18.73;5.15;;;9.70;99.90;;;;;;4932009;29;20036;-94
2022/01/03 06:08:29;;;;;;;22.85;4.15;;;9.70;99.90;;;;;;4906768;29;20052;-95
2022/01/03 06:10:55;;;;;;;21.40;4.88;;;9.70;99.90;;;;;;4894244;29;20083;-96
2022/01/03 06:13:33;;;;;;;21.10;4.57;;;9.70;99.90;;;;;;4893893;29;20510;-96
2022/01/03 06:16:00;;;;;;;20.85;4.63;;;9.70;99.90;;;;;;4899256;29;20040;-96
2022/01/03 06:18:26;;;;;;;25.13;5.13;;;9.70;99.90;;;;;;4962604;23;20056;-96
2022/01/03 06:20:54;;;;;;;22.83;4.90;;;9.60;99.90;;;;;;4983716;23;20038;-96
2022/01/03 06:23:21;;;;;;;21.00;4.70;;;9.60;99.90;;;;;;4896106;29;20123;-96
2022/01/03 06:25:47;;;;;;;22.65;4.85;;;9.60;99.90;;;;;;4900274;29;20048;-96
2022/01/03 06:28:21;;;;;;;22.88;4.72;;;9.60;99.90;;;;;;4902125;29;20095;-96
2022/01/03 06:30:47;;;;;;;22.65;5.07;;;9.50;99.90;;;;;;4916330;29;20044;-96
2022/01/03 06:33:14;;;;;;;21.48;4.90;;;9.40;99.90;;;;;;4900426;29;20064;-96
2022/01/03 06:35:43;;;;;;;19.63;4.88;;;9.50;99.90;;;;;;4896066;29;20055;-96
2022/01/03 06:38:08;;;;;;;20.83;5.10;;;9.40;99.90;;;;;;4891105;29;20055;-96
2022/01/03 06:40:34;;;;;;;20.10;4.82;;;9.40;99.90;;;;;;4881748;29;20040;-91
2022/01/03 06:43:03;;;;;;;22.33;5.03;;;9.40;99.90;;;;;;4896047;29;20044;-95
2022/01/03 06:45:29;;;;;;;23.05;4.97;;;9.40;99.90;;;;;;4902610;29;20063;-96
2022/01/03 06:47:56;;;;;;;23.80;4.85;;;9.40;99.90;;;;;;4940606;23;20039;-96
2022/01/03 06:50:24;;;;;;;23.30;5.00;;;9.40;99.90;;;;;;4941178;23;20058;-96
2022/01/03 06:55:41;;;;;;;27.95;5.72;;;9.40;99.90;;;;;;4968730;23;20060;-96
2022/01/03 06:58:08;;;;;;;26.42;5.45;;;9.40;99.90;;;;;;5218346;23;20302;-96
2022/01/03 07:00:34;;;;;;;24.80;4.63;;;9.40;99.90;;;;;;4923806;28;20051;-96
2022/01/03 07:03:04;;;;;;;26.48;5.70;;;9.30;99.90;;;;;;4938254;29;20052;-96
2022/01/03 07:05:30;;;;;;;22.08;5.18;;;9.30;99.90;;;;;;4918865;29;20080;-96
2022/01/03 07:07:56;;;;;;;23.50;4.80;;;9.40;99.90;;;;;;4896293;29;20047;-96
2022/01/03 07:10:25;;;;;;;25.42;5.55;;;9.30;99.90;;;;;;4898765;29;20048;-95
2022/01/03 07:12:55;;;;;;;25.48;5.90;;;9.30;99.90;;;;;;4886190;29;20076;-95
2022/01/03 07:20:53;;;;;;;23.73;5.10;;;9.30;99.90;;;;;;4895055;29;20056;-96
2022/01/03 07:23:21;;;;;;;22.15;5.97;;;9.30;99.90;;;;;;4872056;29;20457;-96
2022/01/03 07:25:49;;;;;;;27.02;4.85;;;9.20;99.90;;;;;;4992300;23;20466;-96
2022/01/03 07:30:50;;;;;;;26.58;5.88;;;9.30;99.90;;;;;;5011494;23;20064;-96
2022/01/03 07:54:21;;;;;;;27.10;5.72;;;9.50;99.90;;;;;;5157239;23;20066;-96
2022/01/03 07:56:47;;;;;;;26.63;5.32;;;9.50;99.90;;;;;;4902074;29;20080;-96
2022/01/03 07:59:29;;;;;;;24.92;5.65;;;9.40;99.90;;;;;;4879400;29;20044;-96
2022/01/03 08:01:55;;;;;;;23.00;5.50;;;9.50;99.90;;;;;;4878039;29;20056;-96
2022/01/03 08:04:23;;;;;;;24.98;5.10;;;9.60;99.90;;;;;;4878916;29;20021;-96
2022/01/03 08:06:51;;;;;;;24.10;6.32;;;9.60;99.90;;;;;;4898943;29;20078;-96
2022/01/03 08:09:17;;;;;;;24.30;5.82;;;9.70;99.90;;;;;;4886617;29;20044;-96
2022/01/03 08:11:43;;;;;;;23.73;4.93;;;9.70;99.90;;;;;;4878989;29;20110;-96
2022/01/03 08:14:09;;;;;;;24.40;5.47;;;9.60;99.90;;;;;;4874835;29;20047;-96
2022/01/03 08:16:35;;;;;;;21.55;5.10;;;9.70;99.90;;;;;;4882796;29;20045;-96
2022/01/03 08:19:01;;;;;;;27.63;5.75;;;9.70;99.90;;;;;;4870912;29;20041;-92
2022/01/03 08:21:26;;;;;;;25.85;5.90;;;9.80;99.90;;;;;;4868844;29;20056;-96
2022/01/03 08:23:52;;;;;;;24.85;5.10;;;9.80;99.90;;;;;;4874469;29;20140;-95
2022/01/03 08:26:17;;;;;;;25.10;5.65;;;9.90;99.90;;;;;;4852885;29;20113;-93
2022/01/03 08:28:55;;;;;;;20.08;5.07;;;9.90;99.90;;;;;;4874902;29;20081;-96
2022/01/03 08:31:22;;;;;;;25.55;5.65;;;9.90;99.90;;;;;;4892766;29;20379;-96
2022/01/03 08:33:48;;;;;;;25.10;6.25;;;9.90;99.90;;;;;;4877687;29;20048;-95
2022/01/03 08:36:14;;;;;;;21.73;5.10;;;10.00;99.90;;;;;;4871426;29;20044;-93
2022/01/03 08:38:39;;;;;;;23.98;5.78;;;10.10;99.90;;;;;;4865799;29;20056;-92
2022/01/03 08:41:06;;;;;;;23.65;5.70;;;10.10;99.90;;;;;;4900210;29;20064;-92
2022/01/03 08:43:32;;;;;;;22.35;5.55;;;10.10;99.90;;;;;;4864337;29;20128;-93
2022/01/03 08:45:57;;;;;;;22.48;5.43;;;10.10;99.90;;;;;;4854805;29;20100;-95
2022/01/03 08:48:23;;;;;;;20.60;4.28;;;10.10;99.90;;;;;;4885701;29;20032;-96
2022/01/03 08:54:19;;;;;;;20.60;4.95;;;10.10;99.90;;;;;;4876210;29;20250;-92
2022/01/03 08:56:45;;;;;;;25.83;6.53;;;10.20;99.90;;;;;;4883919;29;20029;-96
2022/01/03 08:59:12;;;;;;;21.48;5.13;;;10.20;99.90;;;;;;4876703;29;20068;-94
2022/01/03 09:01:37;;;;;;;21.58;5.35;;;10.20;99.90;;;;;;4873939;29;20286;-95
2022/01/03 09:04:03;;;;;;;20.02;4.97;;;10.20;99.90;;;;;;4882322;29;20041;-91
2022/01/03 09:06:28;;;;;;;20.33;4.82;;;10.20;99.90;;;;;;4862810;29;20044;-94
2022/01/03 09:08:54;;;;;;;21.35;4.70;;;10.20;99.90;;;;;;4862456;29;20407;-95
2022/01/03 09:11:20;;;;;;;22.53;4.77;;;10.20;99.90;;;;;;4868764;29;20048;-93
2022/01/03 09:13:49;;;;;;;20.10;5.07;;;10.20;99.90;;;;;;4863118;29;20616;-95
2022/01/03 09:16:14;;;;;;;22.40;4.85;;;10.30;99.90;;;;;;4864914;29;20053;-95
2022/01/03 09:18:40;;;;;;;21.73;4.72;;;10.30;99.90;;;;;;4876223;29;20362;-91
2022/01/03 09:21:06;;;;;;;24.65;6.10;;;10.30;99.90;;;;;;4878664;29;20132;-93
2022/01/03 09:23:36;;;;;;;21.55;4.60;;;10.30;99.90;;;;;;4865556;29;20420;-93
2022/01/03 09:28:52;;;;;;;21.85;4.75;;;10.30;99.90;;;;;;4867093;29;20053;-92
2022/01/03 09:31:22;;;;;;;25.13;4.80;;;10.30;99.90;;;;;;4867011;29;20057;-93
2022/01/03 09:33:47;;;;;;;21.77;4.82;;;10.30;99.90;;;;;;4869043;29;20057;-92
2022/01/03 09:36:13;;;;;;;22.90;4.90;;;10.30;99.90;;;;;;4876713;29;20033;-91
2022/01/03 09:38:38;;;;;;;19.77;4.82;;;10.30;99.90;;;;;;4873128;29;20177;-93
2022/01/03 09:41:07;;;;;;;23.48;4.68;;;10.30;99.90;;;;;;4878944;29;20073;-95
2022/01/03 09:43:47;;;;;;;21.08;4.70;;;10.40;99.90;;;;;;4869874;29;20041;-92
2022/01/03 09:46:18;;;;;;;21.20;4.30;;;10.40;99.90;;;;;;4862588;29;20060;-94
2022/01/03 09:48:51;;;;;;;23.38;4.75;;;10.40;99.90;;;;;;4876300;29;20061;-95
2022/01/03 09:51:17;;;;;;;20.98;5.20;;;10.40;99.90;;;;;;4876320;29;20047;-96
2022/01/03 09:53:43;;;;;;;20.90;4.43;;;10.40;99.90;;;;;;4849753;29;20064;-95
2022/01/03 09:56:10;;;;;;;19.77;4.65;;;10.50;99.90;;;;;;4855779;29;20045;-95
2022/01/03 09:58:36;;;;;;;22.00;4.65;;;10.40;99.90;;;;;;4846998;29;20111;-93
2022/01/03 10:01:02;;;;;;;21.27;5.05;;;10.50;99.90;;;;;;4862958;29;20045;-93
2022/01/03 10:03:28;;;;;;;23.95;5.13;;;10.50;99.90;;;;;;4864775;29;20097;-96
2022/01/03 10:05:55;;;;;;;22.88;5.10;;;10.50;99.90;;;;;;4866613;29;20406;-94
2022/01/03 10:08:21;;;;;;;20.60;5.28;;;10.60;99.90;;;;;;4881559;29;20041;-93
2022/01/03 10:10:47;;;;;;;22.25;4.80;;;10.50;99.90;;;;;;4863142;29;20093;-94
2022/01/03 10:13:15;;;;;;;18.98;4.28;;;10.60;99.90;;;;;;4864578;29;20418;-95
2022/01/03 10:15:47;;;;;;;18.80;4.25;;;10.60;99.90;;;;;;4858100;29;20181;-95
2022/01/03 10:18:20;;;;;;;26.50;4.38;;;10.60;99.90;;;;;;4858138;29;20045;-94
2022/01/03 10:20:47;;;;;;;19.10;4.57;;;10.60;99.90;;;;;;4865999;29;20050;-91
2022/01/03 10:23:16;;;;;;;19.85;4.57;;;10.60;99.90;;;;;;4867807;29;20586;-95
2022/01/03 10:25:43;;;;;;;20.30;4.45;;;10.60;99.90;;;;;;4850066;29;20044;-93
2022/01/03 10:28:23;;;;;;;23.85;5.35;;;10.60;99.90;;;;;;4864677;29;20041;-96
2022/01/03 10:30:49;;;;;;;22.30;4.20;;;10.70;99.90;;;;;;4860641;29;20517;-95
2022/01/03 10:33:22;;;;;;;19.58;4.63;;;10.60;99.90;;;;;;4864978;29;20073;-93
2022/01/03 10:35:53;;;;;;;18.42;4.30;;;10.70;99.90;;;;;;4856066;29;20128;-95
2022/01/03 10:38:41;;;;;;;;;;;10.70;99.90;;;;;;4865322;29;20127;-94
2022/01/03 10:41:18;;;;;;;19.05;5.05;;;10.60;99.90;;;;;;4850955;29;20027;-96
2022/01/03 10:43:54;;;;;;;25.13;5.65;;;10.60;99.90;;;;;;4848840;29;20052;-94
2022/01/03 10:46:29;;;;;;;18.92;4.85;;;10.60;99.90;;;;;;4864859;29;20053;-95
2022/01/03 10:49:16;;;;;;;22.08;4.28;;;10.60;99.90;;;;;;4860678;29;20053;-94
2022/01/03 10:51:42;;;;;;;20.17;5.45;;;10.60;99.90;;;;;;4851637;29;20065;-95
2022/01/03 10:54:09;;;;;;;22.45;4.90;;;10.60;99.90;;;;;;4848482;29;20060;-93
2022/01/03 10:56:40;;;;;;;20.70;5.50;;;10.60;99.90;;;;;;4881872;29;20045;-96
2022/01/03 10:59:34;;;;;;;18.73;4.70;;;10.60;99.90;;;;;;4865620;29;20667;-96
2022/01/03 11:02:03;;;;;;;22.38;4.97;;;10.70;99.90;;;;;;4865722;29;20049;-93
2022/01/03 11:13:15;;;;;;;22.27;5.05;;;10.70;99.90;;;;;;4870472;29;20065;-94
2022/01/03 11:16:04;;;;;;;19.08;4.70;;;10.70;99.90;;;;;;4875766;29;20033;-95
2022/01/03 11:18:32;;;;;;;22.63;4.80;;;10.80;99.90;;;;;;4883004;29;20040;-95
2022/01/03 11:21:21;;;;;;;21.70;4.35;;;10.80;99.90;;;;;;4867871;29;20119;-95
2022/01/03 11:26:30;;;;;;;16.45;4.00;;;10.90;99.90;;;;;;4955834;23;20082;-92
2022/01/03 11:29:02;;;;;;;19.10;4.38;;;11.00;99.90;;;;;;4906750;29;20170;-95
2022/01/03 11:31:38;;;;;;;18.48;4.55;;;11.00;99.90;;;;;;4886127;29;20044;-93
2022/01/03 11:34:04;;;;;;;17.50;4.90;;;11.00;99.90;;;;;;4903120;29;20044;-92
2022/01/03 11:36:30;;;;;;;16.92;5.07;;;10.90;99.90;;;;;;4891020;29;20047;-96
2022/01/03 11:39:04;;;;;;;16.88;4.70;;;10.90;99.90;;;;;;4902343;29;20059;-93
2022/01/03 11:41:31;;;;;;;18.95;4.32;;;10.90;99.90;;;;;;4902873;29;20036;-92
2022/01/03 11:44:07;;;;;;;22.00;4.13;;;10.90;99.90;;;;;;4890026;29;20048;-94
2022/01/03 11:51:43;;;;;;;22.98;4.90;;;11.00;99.90;;;;;;4920672;29;20059;-96
2022/01/03 11:54:09;;;;;;;20.77;4.78;;;11.00;99.90;;;;;;4909521;29;20039;-94
2022/01/03 11:56:41;;;;;;;19.77;4.95;;;11.00;99.90;;;;;;4910611;29;20333;-94
2022/01/03 12:03:36;;;;;;;20.38;4.35;;;11.10;99.90;;;;;;4914815;29;20052;-95
2022/01/03 12:05:12;;;;;;;20.75;4.68;;;11.10;99.90;;;;;;4923441;29;20048;-92
2022/01/03 12:07:56;;;;;;;16.98;4.15;;;11.10;99.90;;;;;;4908792;29;20162;-96
2022/01/03 12:10:22;;;;;;;19.98;4.53;;;11.10;99.90;;;;;;4893928;29;20039;-96
2022/01/03 12:12:57;;;;;;;18.05;4.38;;;11.00;99.90;;;;;;4902114;29;20044;-92
2022/01/03 12:15:37;;;;;;;18.85;4.55;;;11.00;99.90;;;;;;4893993;29;20037;-96
2022/01/03 12:18:03;;;;;;;17.48;4.40;;;11.10;99.90;;;;;;4903650;29;20040;-95
2022/01/03 12:20:46;;;;;;;19.75;4.40;;;11.00;99.90;;;;;;4936010;29;20047;-95
2022/01/03 12:23:35;;;;;;;21.98;5.32;;;11.10;99.90;;;;;;4904583;29;20068;-94
2022/01/03 12:26:13;;;;;;;19.17;4.55;;;11.10;99.90;;;;;;4907984;29;20055;-96
2022/01/03 12:29:06;;;;;;;20.75;4.85;;;11.20;99.90;;;;;;4908050;29;20064;-96
2022/01/03 12:32:01;;;;;;;21.52;5.15;;;11.10;99.90;;;;;;4911091;29;20044;-95
2022/01/03 12:34:26;;;;;;;17.33;3.92;;;11.10;99.90;;;;;;4921033;29;20072;-96
2022/01/03 12:37:31;;;;;;;23.10;5.53;;;11.10;99.90;;;;;;4910986;29;20044;-95
2022/01/03 12:40:02;;;;;;;21.25;4.93;;;11.10;99.90;;;;;;4852649;29;20045;-93
2022/01/03 12:43:02;;;;;;;18.98;4.45;;;11.20;99.90;;;;;;4848909;29;20046;-94
2022/01/03 12:45:33;;;;;;;22.13;5.15;;;11.20;99.90;;;;;;4830021;29;20058;-95
2022/01/03 12:48:11;;;;;;;21.40;4.57;;;11.20;99.90;;;;;;4816862;29;20053;-94
2022/01/03 12:50:40;;;;;;;21.17;4.65;;;11.20;99.90;;;;;;4815785;29;20038;-95
2022/01/03 12:53:09;;;;;;;20.23;4.65;;;11.20;99.90;;;;;;4827973;29;20121;-94
2022/01/03 12:55:37;;;;;;;19.05;4.50;;;11.20;99.90;;;;;;4800380;29;20054;-96
2022/01/03 12:58:17;;;;;;;21.40;4.97;;;11.10;99.90;;;;;;4813840;29;20120;-96
2022/01/03 13:00:49;;;;;;;23.60;5.60;;;11.20;99.90;;;;;;4841813;29;20038;-96
2022/01/03 13:03:24;;;;;;;22.38;5.35;;;11.20;99.90;;;;;;4825240;29;20127;-96
2022/01/03 13:06:17;;;;;;;21.90;5.28;;;11.10;99.90;;;;;;4824569;29;20057;-96
2022/01/03 13:08:56;;;;;;;19.02;4.82;;;11.30;99.90;;;;;;4857054;29;20058;-95
2022/01/03 13:11:24;;;;;;;26.25;5.32;;;11.30;99.90;;;;;;4863875;29;20037;-96
2022/01/03 13:14:12;;;;;;;19.42;4.55;;;11.30;99.90;;;;;;4887091;29;20040;-96
2022/01/03 13:16:38;;;;;;;20.40;4.95;;;11.30;99.90;;;;;;4897731;29;20052;-95
2022/01/03 13:19:12;;;;;;;20.35;5.30;;;11.30;99.90;;;;;;4882662;29;20052;-96
2022/01/03 13:21:52;;;;;;;17.50;4.88;;;11.30;99.90;;;;;;4922540;29;20505;-96
2022/01/03 13:24:34;;;;;;;21.98;4.65;;;11.30;99.90;;;;;;4912926;24;20052;-96
2022/01/03 13:27:02;;;;;;;21.27;5.85;;;11.30;99.90;;;;;;4918400;29;20048;-94
2022/01/03 13:29:35;;;;;;;24.55;5.55;;;11.20;99.90;;;;;;4903887;29;20032;-95
2022/01/03 13:32:01;;;;;;;21.25;4.47;;;11.20;99.90;;;;;;4912169;29;20040;-93
2022/01/03 13:34:30;;;;;;;23.27;5.53;;;11.30;99.90;;;;;;4905848;29;20055;-96
2022/01/03 13:37:03;;;;;;;18.23;4.97;;;11.30;99.90;;;;;;4887971;29;20117;-93
2022/01/03 13:39:30;;;;;;;19.17;4.30;;;11.20;99.90;;;;;;4905391;29;20200;-96
2022/01/03 13:42:03;;;;;;;20.75;5.50;;;11.30;99.90;;;;;;4903512;29;20052;-95
2022/01/03 13:49:52;;;;;;;21.50;5.05;;;11.20;99.90;;;;;;4904976;29;20060;-92
2022/01/03 13:52:48;;;;;;;24.48;4.60;;;11.30;99.90;;;;;;4904082;29;20187;-93
2022/01/03 13:55:19;;;;;;;21.52;5.28;;;11.30;99.90;;;;;;4894362;29;20059;-94
2022/01/03 13:57:47;;;;;;;18.45;4.32;;;11.30;99.90;;;;;;4901733;29;20052;-94
2022/01/03 14:00:17;;;;;;;20.08;4.65;;;11.20;99.90;;;;;;4903247;29;20051;-95
2022/01/03 14:02:44;;;;;;;19.63;5.50;;;11.20;99.90;;;;;;4885149;29;20056;-94
2022/01/03 14:05:11;;;;;;;20.13;5.32;;;11.20;99.90;;;;;;4893475;29;20055;-95
2022/01/03 14:07:49;;;;;;;21.98;5.22;;;11.20;99.90;;;;;;4893076;29;20051;-96
2022/01/03 14:10:15;;;;;;;20.83;4.40;;;11.20;99.90;;;;;;4894997;29;20103;-93
2022/01/03 14:12:50;;;;;;;20.15;4.53;;;11.10;99.90;;;;;;4894571;29;20052;-96
2022/01/03 14:15:16;;;;;;;16.33;4.57;;;11.10;99.90;;;;;;4890913;29;20048;-96
2022/01/03 14:17:51;;;;;;;19.42;5.20;;;11.10;99.90;;;;;;4902671;29;20056;-96
2022/01/03 14:20:20;;;;;;;20.08;5.00;;;11.10;99.90;;;;;;4901078;29;20398;-93
2022/01/03 14:22:47;;;;;;;21.52;4.57;;;11.00;99.90;;;;;;4900566;29;20382;-94
2022/01/03 14:25:15;;;;;;;22.00;5.20;;;11.10;99.90;;;;;;4884257;29;20135;-93
2022/01/03 14:27:57;;;;;;;19.45;4.55;;;11.10;99.90;;;;;;4889004;29;20066;-92
2022/01/03 14:30:36;;;;;;;20.08;5.05;;;11.10;99.90;;;;;;4896446;29;20039;-94
2022/01/03 14:33:06;;;;;;;19.90;4.78;;;11.10;99.90;;;;;;4885027;29;20055;-94
2022/01/03 14:35:44;;;;;;;25.70;5.95;;;11.00;99.90;;;;;;4902096;29;20416;-94
2022/01/03 14:38:14;;;;;;;25.00;5.78;;;11.00;99.90;;;;;;4886061;29;20055;-93
2022/01/03 14:40:41;;;;;;;20.15;4.90;;;11.00;99.90;;;;;;4904174;29;20056;-96
2022/01/03 14:43:08;;;;;;;23.30;6.18;;;10.90;99.90;;;;;;4902580;29;20050;-95
2022/01/03 14:45:34;;;;;;;21.52;4.50;;;10.90;99.90;;;;;;4904531;29;20032;-95
2022/01/03 14:48:02;;;;;;;18.95;5.22;;;10.90;99.90;;;;;;4903477;29;20466;-95
2022/01/03 14:50:29;;;;;;;22.83;5.20;;;10.90;99.90;;;;;;4891095;29;20044;-96
2022/01/03 14:52:59;;;;;;;20.20;5.38;;;10.80;99.90;;;;;;4888712;29;20044;-93
2022/01/03 14:55:40;;;;;;;24.00;5.50;;;10.70;99.90;;;;;;4887147;29;20055;-94
2022/01/03 14:58:07;;;;;;;25.52;6.50;;;10.70;99.90;;;;;;4905877;29;20040;-95
2022/01/03 15:00:35;;;;;;;21.90;5.30;;;10.70;99.90;;;;;;4891878;29;20036;-95
2022/01/03 15:03:02;;;;;;;24.27;5.43;;;10.60;99.90;;;;;;4922425;29;20111;-91
2022/01/03 15:05:28;;;;;;;21.10;5.78;;;10.50;99.90;;;;;;4899107;29;20051;-93
2022/01/03 15:07:56;;;;;;;20.10;5.10;;;10.50;99.90;;;;;;4898444;29;20059;-96
2022/01/03 15:10:33;;;;;;;20.58;4.70;;;10.50;99.90;;;;;;5048320;23;20095;-95
2022/01/03 15:12:59;;;;;;;18.48;5.88;;;10.50;99.90;;;;;;4862428;29;20076;-95
2022/01/03 15:15:35;;;;;;;20.55;4.28;;;10.40;99.90;;;;;;5048590;23;20051;31
2022/01/03 15:18:01;;;;;;;22.52;5.05;;;10.40;99.90;;;;;;4824138;29;20471;-96
2022/01/03 15:20:29;;;;;;;25.00;5.18;;;10.40;99.90;;;;;;4869469;24;20028;-96